sensor_id;sensor_type;location;lat;lon;timestamp;pressure;altitude;pressure_sealevel;temperature;humidity
4085;BME280;2057;50.858;6.572;2022-11-04T00:01:15;99060.34;;;10.69;100.00
4085;BME280;2057;50.858;6.572;2022-11-04T00:03:40;99061.66;;;10.54;100.00
4085;BME280;2057;50.858;6.572;2022-11-04T00:06:07;99060.78;;;10.52;100.00
4085;BME280;2057;50.858;6.572;2022-11-04T00:08:32;99068.22;;;10.46;100.00
4085;BME280;2057;50.858;6.572;2022-11-04T00:10:59;99075.81;;;10.46;100.00
4085;BME280;2057;50.858;6.572;2022-11-04T00:13:44;99084.91;;;10.70;100.00
4085;BME280;2057;50.858;6.572;2022-11-04T00:16:10;99076.81;;;10.51;100.00
4085;BME280;2057;50.858;6.572;2022-11-04T00:18:54;99085.56;;;10.62;100.00
4085;BME280;2057;50.858;6.572;2022-11-04T00:21:19;99098.84;;;10.52;100.00
4085;BME280;2057;50.858;6.572;2022-11-04T00:24:04;99098.22;;;10.61;100.00
4085;BME280;2057;50.858;6.572;2022-11-04T00:26:48;99103.38;;;10.64;100.00
4085;BME280;2057;50.858;6.572;2022-11-04T00:29:32;99099.72;;;10.54;100.00
4085;BME280;2057;50.858;6.572;2022-11-04T00:31:57;99097.44;;;10.63;100.00
4085;BME280;2057;50.858;6.572;2022-11-04T00:34:41;99103.94;;;10.54;100.00
4085;BME280;2057;50.858;6.572;2022-11-04T00:37:07;99105.84;;;10.62;100.00
4085;BME280;2057;50.858;6.572;2022-11-04T00:39:32;99113.31;;;10.56;100.00
4085;BME280;2057;50.858;6.572;2022-11-04T00:41:57;99110.72;;;10.53;100.00
4085;BME280;2057;50.858;6.572;2022-11-04T00:44:23;99111.53;;;10.52;100.00
4085;BME280;2057;50.858;6.572;2022-11-04T00:46:48;99113.81;;;10.43;100.00
4085;BME280;2057;50.858;6.572;2022-11-04T00:49:14;99118.50;;;10.30;100.00
4085;BME280;2057;50.858;6.572;2022-11-04T00:51:39;99107.81;;;10.39;100.00
4085;BME280;2057;50.858;6.572;2022-11-04T00:54:05;99110.84;;;10.27;100.00
4085;BME280;2057;50.858;6.572;2022-11-04T00:56:30;99116.66;;;10.25;100.00
4085;BME280;2057;50.858;6.572;2022-11-04T00:58:58;99128.91;;;10.09;100.00
4085;BME280;2057;50.858;6.572;2022-11-04T01:01:24;99132.53;;;10.17;100.00
4085;BME280;2057;50.858;6.572;2022-11-04T01:03:51;99140.69;;;10.07;100.00
4085;BME280;2057;50.858;6.572;2022-11-04T01:06:20;99141.28;;;9.98;100.00
4085;BME280;2057;50.858;6.572;2022-11-04T01:08:47;99152.06;;;9.91;100.00
4085;BME280;2057;50.858;6.572;2022-11-04T01:11:13;99158.72;;;9.87;100.00
4085;BME280;2057;50.858;6.572;2022-11-04T01:13:40;99156.41;;;9.95;100.00
4085;BME280;2057;50.858;6.572;2022-11-04T01:16:08;99168.25;;;9.96;100.00
4085;BME280;2057;50.858;6.572;2022-11-04T01:18:34;99168.75;;;9.84;100.00
4085;BME280;2057;50.858;6.572;2022-11-04T01:21:01;99169.84;;;9.93;100.00
4085;BME280;2057;50.858;6.572;2022-11-04T01:23:27;99165.97;;;9.77;100.00
4085;BME280;2057;50.858;6.572;2022-11-04T01:25:52;99156.63;;;9.74;100.00
4085;BME280;2057;50.858;6.572;2022-11-04T01:28:17;99161.00;;;9.80;100.00
4085;BME280;2057;50.858;6.572;2022-11-04T01:30:43;99161.41;;;9.65;100.00
4085;BME280;2057;50.858;6.572;2022-11-04T01:33:08;99168.81;;;9.58;100.00
4085;BME280;2057;50.858;6.572;2022-11-04T01:35:33;99157.09;;;9.62;100.00
4085;BME280;2057;50.858;6.572;2022-11-04T01:37:59;99152.22;;;9.68;100.00
4085;BME280;2057;50.858;6.572;2022-11-04T01:40:24;99155.78;;;9.73;100.00
4085;BME280;2057;50.858;6.572;2022-11-04T01:42:50;99156.53;;;9.71;100.00
4085;BME280;2057;50.858;6.572;2022-11-04T01:45:18;99164.56;;;9.57;100.00
4085;BME280;2057;50.858;6.572;2022-11-04T01:47:49;99168.66;;;9.54;100.00
4085;BME280;2057;50.858;6.572;2022-11-04T01:50:26;99172.06;;;9.54;100.00
4085;BME280;2057;50.858;6.572;2022-11-04T01:52:58;99170.06;;;9.44;100.00
4085;BME280;2057;50.858;6.572;2022-11-04T01:55:31;99177.41;;;9.36;100.00
4085;BME280;2057;50.858;6.572;2022-11-04T01:58:01;99173.94;;;9.34;100.00
4085;BME280;2057;50.858;6.572;2022-11-04T02:00:27;99183.47;;;9.41;100.00
4085;BME280;2057;50.858;6.572;2022-11-04T02:02:54;99182.50;;;9.38;100.00
4085;BME280;2057;50.858;6.572;2022-11-04T02:05:21;99185.31;;;9.46;100.00
4085;BME280;2057;50.858;6.572;2022-11-04T02:07:53;99197.19;;;9.48;100.00
4085;BME280;2057;50.858;6.572;2022-11-04T02:10:21;99196.28;;;9.46;100.00
4085;BME280;2057;50.858;6.572;2022-11-04T02:12:49;99187.09;;;9.50;100.00
4085;BME280;2057;50.858;6.572;2022-11-04T02:15:26;99187.25;;;9.54;100.00
4085;BME280;2057;50.858;6.572;2022-11-04T02:18:05;99182.97;;;9.52;100.00
4085;BME280;2057;50.858;6.572;2022-11-04T02:35:28;99161.09;;;9.28;100.00
4085;BME280;2057;50.858;6.572;2022-11-04T02:38:15;99159.47;;;9.30;100.00
4085;BME280;2057;50.858;6.572;2022-11-04T02:43:50;99163.06;;;9.11;100.00
4085;BME280;2057;50.858;6.572;2022-11-04T02:46:31;99156.22;;;9.08;100.00
4085;BME280;2057;50.858;6.572;2022-11-04T02:49:13;99153.50;;;9.02;100.00
4085;BME280;2057;50.858;6.572;2022-11-04T02:51:44;99148.13;;;8.93;100.00
4085;BME280;2057;50.858;6.572;2022-11-04T02:54:27;99150.47;;;8.87;100.00
4085;BME280;2057;50.858;6.572;2022-11-04T02:56:57;99156.22;;;8.83;100.00
4085;BME280;2057;50.858;6.572;2022-11-04T02:59:46;99151.75;;;8.75;100.00
4085;BME280;2057;50.858;6.572;2022-11-04T03:02:17;99150.00;;;8.73;100.00
4085;BME280;2057;50.858;6.572;2022-11-04T03:04:47;99152.19;;;8.88;100.00
4085;BME280;2057;50.858;6.572;2022-11-04T03:07:17;99151.16;;;8.83;100.00
4085;BME280;2057;50.858;6.572;2022-11-04T03:09:50;99148.47;;;8.78;100.00
4085;BME280;2057;50.858;6.572;2022-11-04T03:12:20;99150.75;;;8.70;100.00
4085;BME280;2057;50.858;6.572;2022-11-04T03:15:04;99150.31;;;8.82;100.00
4085;BME280;2057;50.858;6.572;2022-11-04T03:17:41;99155.47;;;8.85;100.00
4085;BME280;2057;50.858;6.572;2022-11-04T03:20:15;99151.66;;;8.72;100.00
4085;BME280;2057;50.858;6.572;2022-11-04T03:22:42;99168.06;;;8.59;100.00
4085;BME280;2057;50.858;6.572;2022-11-04T03:25:09;99166.56;;;8.65;100.00
4085;BME280;2057;50.858;6.572;2022-11-04T03:30:23;99167.66;;;8.47;100.00
4085;BME280;2057;50.858;6.572;2022-11-04T03:35:17;99174.47;;;8.27;100.00
4085;BME280;2057;50.858;6.572;2022-11-04T03:37:46;99166.03;;;8.26;100.00
4085;BME280;2057;50.858;6.572;2022-11-04T03:40:13;99162.53;;;8.23;100.00
4085;BME280;2057;50.858;6.572;2022-11-04T03:43:18;99150.72;;;8.46;100.00
4085;BME280;2057;50.858;6.572;2022-11-04T03:45:45;99152.13;;;8.38;100.00
4085;BME280;2057;50.858;6.572;2022-11-04T03:48:11;99152.16;;;8.39;100.00
4085;BME280;2057;50.858;6.572;2022-11-04T03:50:42;99152.63;;;8.52;100.00
4085;BME280;2057;50.858;6.572;2022-11-04T03:53:09;99141.03;;;8.58;100.00
4085;BME280;2057;50.858;6.572;2022-11-04T04:04:10;99138.75;;;8.18;100.00
4085;BME280;2057;50.858;6.572;2022-11-04T04:06:40;99136.56;;;8.27;100.00
4085;BME280;2057;50.858;6.572;2022-11-04T04:09:27;99144.03;;;8.24;100.00
4085;BME280;2057;50.858;6.572;2022-11-04T04:12:04;99146.09;;;8.34;100.00
4085;BME280;2057;50.858;6.572;2022-11-04T04:14:41;99158.13;;;8.41;100.00
4085;BME280;2057;50.858;6.572;2022-11-04T04:19:44;99154.91;;;8.68;100.00
4085;BME280;2057;50.858;6.572;2022-11-04T04:22:16;99162.16;;;8.59;100.00
4085;BME280;2057;50.858;6.572;2022-11-04T04:24:45;99160.44;;;8.58;100.00
4085;BME280;2057;50.858;6.572;2022-11-04T04:27:31;99162.47;;;8.68;100.00
4085;BME280;2057;50.858;6.572;2022-11-04T04:30:11;99156.34;;;8.61;100.00
4085;BME280;2057;50.858;6.572;2022-11-04T04:32:40;99151.72;;;8.74;100.00
4085;BME280;2057;50.858;6.572;2022-11-04T04:35:08;99153.66;;;8.57;100.00
4085;BME280;2057;50.858;6.572;2022-11-04T04:37:55;99154.91;;;8.45;100.00
4085;BME280;2057;50.858;6.572;2022-11-04T04:40:44;99157.81;;;8.32;100.00
4085;BME280;2057;50.858;6.572;2022-11-04T04:43:30;99171.03;;;8.25;100.00
4085;BME280;2057;50.858;6.572;2022-11-04T04:46:14;99177.69;;;8.23;100.00
4085;BME280;2057;50.858;6.572;2022-11-04T04:48:39;99167.94;;;8.09;100.00
4085;BME280;2057;50.858;6.572;2022-11-04T04:51:05;99164.88;;;8.18;100.00
4085;BME280;2057;50.858;6.572;2022-11-04T04:53:30;99166.38;;;8.13;100.00
4085;BME280;2057;50.858;6.572;2022-11-04T04:55:55;99170.06;;;8.21;100.00
4085;BME280;2057;50.858;6.572;2022-11-04T04:58:23;99166.44;;;8.14;100.00
4085;BME280;2057;50.858;6.572;2022-11-04T05:00:48;99165.41;;;8.09;100.00
4085;BME280;2057;50.858;6.572;2022-11-04T05:03:14;99164.38;;;8.04;100.00
4085;BME280;2057;50.858;6.572;2022-11-04T05:05:39;99161.97;;;8.07;100.00
4085;BME280;2057;50.858;6.572;2022-11-04T05:08:05;99164.75;;;8.15;100.00
4085;BME280;2057;50.858;6.572;2022-11-04T05:10:31;99167.94;;;8.09;100.00
4085;BME280;2057;50.858;6.572;2022-11-04T05:12:58;99176.81;;;7.77;100.00
4085;BME280;2057;50.858;6.572;2022-11-04T05:15:42;99182.00;;;7.80;100.00
4085;BME280;2057;50.858;6.572;2022-11-04T05:18:07;99181.13;;;7.79;100.00
4085;BME280;2057;50.858;6.572;2022-11-04T05:20:33;99184.41;;;7.77;100.00
4085;BME280;2057;50.858;6.572;2022-11-04T05:23:00;99179.28;;;7.75;100.00
4085;BME280;2057;50.858;6.572;2022-11-04T05:25:25;99167.88;;;7.85;100.00
4085;BME280;2057;50.858;6.572;2022-11-04T05:27:50;99172.13;;;7.86;100.00
4085;BME280;2057;50.858;6.572;2022-11-04T05:30:16;99170.78;;;7.73;100.00
4085;BME280;2057;50.858;6.572;2022-11-04T05:32:41;99165.34;;;7.41;100.00
4085;BME280;2057;50.858;6.572;2022-11-04T05:35:07;99169.50;;;7.62;100.00
4085;BME280;2057;50.858;6.572;2022-11-04T05:37:43;99161.78;;;7.59;100.00
4085;BME280;2057;50.858;6.572;2022-11-04T05:40:10;99165.38;;;7.64;100.00
4085;BME280;2057;50.858;6.572;2022-11-04T05:42:35;99172.63;;;7.56;100.00
4085;BME280;2057;50.858;6.572;2022-11-04T05:45:01;99174.28;;;7.54;100.00
4085;BME280;2057;50.858;6.572;2022-11-04T05:47:27;99174.56;;;7.62;100.00
4085;BME280;2057;50.858;6.572;2022-11-04T05:49:52;99173.69;;;7.61;100.00
4085;BME280;2057;50.858;6.572;2022-11-04T05:52:19;99173.56;;;7.37;100.00
4085;BME280;2057;50.858;6.572;2022-11-04T05:54:45;99177.28;;;7.45;100.00
4085;BME280;2057;50.858;6.572;2022-11-04T05:57:10;99176.28;;;7.63;100.00
4085;BME280;2057;50.858;6.572;2022-11-04T05:59:36;99171.75;;;7.54;100.00
4085;BME280;2057;50.858;6.572;2022-11-04T06:02:03;99168.09;;;7.47;100.00
4085;BME280;2057;50.858;6.572;2022-11-04T06:04:28;99175.97;;;7.55;100.00
4085;BME280;2057;50.858;6.572;2022-11-04T06:06:53;99170.00;;;7.74;100.00
4085;BME280;2057;50.858;6.572;2022-11-04T06:09:19;99170.44;;;7.64;100.00
4085;BME280;2057;50.858;6.572;2022-11-04T06:11:44;99171.56;;;7.49;100.00
4085;BME280;2057;50.858;6.572;2022-11-04T06:14:10;99165.41;;;7.43;100.00
4085;BME280;2057;50.858;6.572;2022-11-04T06:16:38;99170.88;;;7.53;100.00
4085;BME280;2057;50.858;6.572;2022-11-04T06:19:03;99177.84;;;8.27;100.00
4085;BME280;2057;50.858;6.572;2022-11-04T06:21:30;99193.56;;;8.19;100.00
4085;BME280;2057;50.858;6.572;2022-11-04T06:23:57;99180.72;;;7.47;100.00
4085;BME280;2057;50.858;6.572;2022-11-04T06:26:24;99185.66;;;7.44;100.00
4085;BME280;2057;50.858;6.572;2022-11-04T06:28:50;99191.66;;;7.27;100.00
4085;BME280;2057;50.858;6.572;2022-11-04T06:31:16;99190.03;;;7.48;100.00
4085;BME280;2057;50.858;6.572;2022-11-04T06:33:41;99188.34;;;7.49;100.00
4085;BME280;2057;50.858;6.572;2022-11-04T06:36:09;99196.81;;;7.49;100.00
4085;BME280;2057;50.858;6.572;2022-11-04T06:38:35;99198.28;;;7.44;100.00
4085;BME280;2057;50.858;6.572;2022-11-04T06:41:02;99203.06;;;7.59;100.00
4085;BME280;2057;50.858;6.572;2022-11-04T06:43:28;99205.75;;;7.62;100.00
4085;BME280;2057;50.858;6.572;2022-11-04T06:45:57;99221.19;;;7.70;100.00
4085;BME280;2057;50.858;6.572;2022-11-04T06:48:24;99223.84;;;7.73;100.00
4085;BME280;2057;50.858;6.572;2022-11-04T06:50:49;99224.69;;;7.74;100.00
4085;BME280;2057;50.858;6.572;2022-11-04T06:53:15;99233.19;;;7.76;100.00
4085;BME280;2057;50.858;6.572;2022-11-04T06:55:40;99243.25;;;7.74;100.00
4085;BME280;2057;50.858;6.572;2022-11-04T06:58:06;99230.63;;;7.74;100.00
4085;BME280;2057;50.858;6.572;2022-11-04T07:00:31;99233.94;;;7.73;100.00
4085;BME280;2057;50.858;6.572;2022-11-04T07:02:57;99235.94;;;7.82;100.00
4085;BME280;2057;50.858;6.572;2022-11-04T07:05:22;99236.09;;;7.85;100.00
4085;BME280;2057;50.858;6.572;2022-11-04T07:07:48;99235.47;;;7.91;100.00
4085;BME280;2057;50.858;6.572;2022-11-04T07:10:13;99248.09;;;7.91;100.00
4085;BME280;2057;50.858;6.572;2022-11-04T07:12:39;99241.63;;;7.97;100.00
4085;BME280;2057;50.858;6.572;2022-11-04T07:15:04;99253.19;;;8.13;100.00
4085;BME280;2057;50.858;6.572;2022-11-04T07:17:30;99255.94;;;8.20;100.00
4085;BME280;2057;50.858;6.572;2022-11-04T07:19:55;99248.13;;;8.13;100.00
4085;BME280;2057;50.858;6.572;2022-11-04T07:22:20;99253.09;;;8.10;100.00
4085;BME280;2057;50.858;6.572;2022-11-04T07:24:46;99258.63;;;8.24;100.00
4085;BME280;2057;50.858;6.572;2022-11-04T07:27:11;99270.78;;;8.10;100.00
4085;BME280;2057;50.858;6.572;2022-11-04T07:29:36;99264.97;;;8.13;100.00
4085;BME280;2057;50.858;6.572;2022-11-04T07:32:02;99276.88;;;7.94;100.00
4085;BME280;2057;50.858;6.572;2022-11-04T07:34:27;99282.41;;;7.85;100.00
4085;BME280;2057;50.858;6.572;2022-11-04T07:36:53;99289.94;;;8.05;100.00
4085;BME280;2057;50.858;6.572;2022-11-04T07:39:18;99300.28;;;8.11;100.00
4085;BME280;2057;50.858;6.572;2022-11-04T07:41:43;99307.44;;;8.00;100.00
4085;BME280;2057;50.858;6.572;2022-11-04T07:44:11;99317.16;;;8.12;100.00
4085;BME280;2057;50.858;6.572;2022-11-04T07:46:37;99323.34;;;8.19;100.00
4085;BME280;2057;50.858;6.572;2022-11-04T07:49:03;99319.84;;;8.15;100.00
4085;BME280;2057;50.858;6.572;2022-11-04T07:51:29;99326.09;;;8.25;100.00
4085;BME280;2057;50.858;6.572;2022-11-04T07:53:56;99321.50;;;8.36;100.00
4085;BME280;2057;50.858;6.572;2022-11-04T07:56:22;99334.19;;;8.38;100.00
4085;BME280;2057;50.858;6.572;2022-11-04T07:58:48;99332.03;;;8.47;100.00
4085;BME280;2057;50.858;6.572;2022-11-04T08:01:17;99330.38;;;8.47;100.00
4085;BME280;2057;50.858;6.572;2022-11-04T08:03:42;99338.34;;;8.58;100.00
4085;BME280;2057;50.858;6.572;2022-11-04T08:06:11;99332.56;;;8.61;100.00
4085;BME280;2057;50.858;6.572;2022-11-04T08:08:37;99333.59;;;8.66;100.00
4085;BME280;2057;50.858;6.572;2022-11-04T08:11:17;99333.47;;;8.63;100.00
4085;BME280;2057;50.858;6.572;2022-11-04T08:13:44;99342.56;;;8.58;100.00
4085;BME280;2057;50.858;6.572;2022-11-04T08:16:15;99343.03;;;8.70;100.00
4085;BME280;2057;50.858;6.572;2022-11-04T08:18:41;99329.81;;;8.77;100.00
4085;BME280;2057;50.858;6.572;2022-11-04T08:21:07;99334.41;;;8.88;100.00
4085;BME280;2057;50.858;6.572;2022-11-04T08:23:34;99341.06;;;8.86;100.00
4085;BME280;2057;50.858;6.572;2022-11-04T08:25:59;99335.31;;;8.67;100.00
4085;BME280;2057;50.858;6.572;2022-11-04T08:28:25;99336.25;;;8.69;100.00
4085;BME280;2057;50.858;6.572;2022-11-04T08:30:56;99334.88;;;8.77;100.00
4085;BME280;2057;50.858;6.572;2022-11-04T08:33:23;99330.59;;;8.99;100.00
4085;BME280;2057;50.858;6.572;2022-11-04T08:35:48;99335.38;;;8.91;100.00
4085;BME280;2057;50.858;6.572;2022-11-04T08:38:14;99333.53;;;8.87;100.00
4085;BME280;2057;50.858;6.572;2022-11-04T08:40:40;99334.13;;;8.80;100.00
4085;BME280;2057;50.858;6.572;2022-11-04T08:43:05;99345.69;;;8.96;100.00
4085;BME280;2057;50.858;6.572;2022-11-04T08:45:32;99343.50;;;9.05;100.00
4085;BME280;2057;50.858;6.572;2022-11-04T08:47:58;99345.25;;;9.08;100.00
4085;BME280;2057;50.858;6.572;2022-11-04T08:50:25;99347.16;;;9.14;100.00
4085;BME280;2057;50.858;6.572;2022-11-04T08:52:52;99344.72;;;9.17;100.00
4085;BME280;2057;50.858;6.572;2022-11-04T08:55:18;99343.22;;;9.22;100.00
4085;BME280;2057;50.858;6.572;2022-11-04T08:57:43;99342.47;;;9.24;100.00
4085;BME280;2057;50.858;6.572;2022-11-04T09:00:09;99338.97;;;9.21;100.00
4085;BME280;2057;50.858;6.572;2022-11-04T09:02:35;99348.63;;;9.31;100.00
4085;BME280;2057;50.858;6.572;2022-11-04T09:05:01;99353.56;;;9.28;100.00
4085;BME280;2057;50.858;6.572;2022-11-04T09:07:29;99352.38;;;9.42;100.00
4085;BME280;2057;50.858;6.572;2022-11-04T09:09:55;99345.06;;;9.50;100.00
4085;BME280;2057;50.858;6.572;2022-11-04T09:12:20;99352.03;;;9.57;100.00
4085;BME280;2057;50.858;6.572;2022-11-04T09:14:45;99344.56;;;9.61;100.00
4085;BME280;2057;50.858;6.572;2022-11-04T09:17:11;99349.56;;;9.59;100.00
4085;BME280;2057;50.858;6.572;2022-11-04T09:19:36;99345.22;;;9.55;100.00
4085;BME280;2057;50.858;6.572;2022-11-04T09:22:01;99344.59;;;9.38;100.00
4085;BME280;2057;50.858;6.572;2022-11-04T09:24:27;99350.56;;;9.38;100.00
4085;BME280;2057;50.858;6.572;2022-11-04T09:26:52;99349.91;;;9.44;100.00
4085;BME280;2057;50.858;6.572;2022-11-04T09:29:17;99348.03;;;9.38;100.00
4085;BME280;2057;50.858;6.572;2022-11-04T09:31:43;99354.31;;;9.50;100.00
4085;BME280;2057;50.858;6.572;2022-11-04T09:34:08;99349.22;;;9.74;100.00
4085;BME280;2057;50.858;6.572;2022-11-04T09:36:33;99347.94;;;9.61;100.00
4085;BME280;2057;50.858;6.572;2022-11-04T09:38:59;99346.06;;;9.55;100.00
4085;BME280;2057;50.858;6.572;2022-11-04T09:46:31;99321.19;;;9.95;100.00
4085;BME280;2057;50.858;6.572;2022-11-04T09:49:00;99339.69;;;9.93;100.00
4085;BME280;2057;50.858;6.572;2022-11-04T09:51:27;99352.69;;;10.02;100.00
4085;BME280;2057;50.858;6.572;2022-11-04T09:54:09;99359.47;;;10.03;100.00
4085;BME280;2057;50.858;6.572;2022-11-04T09:56:38;99371.81;;;10.18;100.00
4085;BME280;2057;50.858;6.572;2022-11-04T09:59:13;99365.47;;;10.32;100.00
4085;BME280;2057;50.858;6.572;2022-11-04T10:01:42;99367.53;;;10.17;100.00
4085;BME280;2057;50.858;6.572;2022-11-04T10:04:23;99362.03;;;10.30;100.00
4085;BME280;2057;50.858;6.572;2022-11-04T10:07:19;99363.16;;;10.39;100.00
4085;BME280;2057;50.858;6.572;2022-11-04T10:18:41;99369.81;;;11.20;100.00
4085;BME280;2057;50.858;6.572;2022-11-04T10:24:03;99379.66;;;11.09;100.00
4085;BME280;2057;50.858;6.572;2022-11-04T10:26:59;99386.78;;;11.21;100.00
4085;BME280;2057;50.858;6.572;2022-11-04T10:29:36;99384.28;;;11.23;100.00
4085;BME280;2057;50.858;6.572;2022-11-04T10:32:12;99382.22;;;11.40;100.00
4085;BME280;2057;50.858;6.572;2022-11-04T10:34:47;99384.53;;;11.32;100.00
4085;BME280;2057;50.858;6.572;2022-11-04T10:37:15;99377.44;;;11.20;100.00
4085;BME280;2057;50.858;6.572;2022-11-04T10:39:44;99374.41;;;11.34;100.00
4085;BME280;2057;50.858;6.572;2022-11-04T10:42:12;99377.03;;;11.37;100.00
4085;BME280;2057;50.858;6.572;2022-11-04T10:44:39;99378.81;;;11.41;100.00
4085;BME280;2057;50.858;6.572;2022-11-04T10:52:37;99388.50;;;11.53;100.00
4085;BME280;2057;50.858;6.572;2022-11-04T10:55:56;99392.94;;;11.61;100.00
4085;BME280;2057;50.858;6.572;2022-11-04T10:57:59;99393.91;;;11.67;100.00
4085;BME280;2057;50.858;6.572;2022-11-04T11:00:39;99403.28;;;11.68;100.00
4085;BME280;2057;50.858;6.572;2022-11-04T11:03:28;99401.75;;;11.74;100.00
4085;BME280;2057;50.858;6.572;2022-11-04T11:06:10;99407.34;;;11.95;100.00
4085;BME280;2057;50.858;6.572;2022-11-04T11:08:37;99406.41;;;11.89;100.00
4085;BME280;2057;50.858;6.572;2022-11-04T11:11:07;99409.22;;;11.99;100.00
4085;BME280;2057;50.858;6.572;2022-11-04T11:13:36;99410.63;;;12.22;100.00
4085;BME280;2057;50.858;6.572;2022-11-04T11:18:36;99407.06;;;12.16;99.83
4085;BME280;2057;50.858;6.572;2022-11-04T11:23:47;99410.19;;;12.04;100.00
4085;BME280;2057;50.858;6.572;2022-11-04T11:26:18;99416.19;;;12.07;100.00
4085;BME280;2057;50.858;6.572;2022-11-04T11:28:50;99422.31;;;12.14;100.00
4085;BME280;2057;50.858;6.572;2022-11-04T11:31:20;99419.91;;;12.20;99.50
4085;BME280;2057;50.858;6.572;2022-11-04T11:33:59;99424.31;;;12.28;98.48
4085;BME280;2057;50.858;6.572;2022-11-04T11:36:31;99422.66;;;12.28;97.42
4085;BME280;2057;50.858;6.572;2022-11-04T11:41:26;99426.88;;;12.28;96.38
4085;BME280;2057;50.858;6.572;2022-11-04T11:47:06;99440.34;;;12.23;97.69
4085;BME280;2057;50.858;6.572;2022-11-04T11:49:42;99432.38;;;12.10;98.65
4085;BME280;2057;50.858;6.572;2022-11-04T11:52:31;99431.44;;;12.06;100.00
4085;BME280;2057;50.858;6.572;2022-11-04T11:55:15;99423.78;;;12.04;98.91
4085;BME280;2057;50.858;6.572;2022-11-04T12:01:00;99441.13;;;11.89;99.19
4085;BME280;2057;50.858;6.572;2022-11-04T12:03:32;99435.59;;;12.02;96.96
4085;BME280;2057;50.858;6.572;2022-11-04T12:14:33;99447.91;;;11.88;97.16
4085;BME280;2057;50.858;6.572;2022-11-04T12:17:21;99444.97;;;11.74;96.88
4085;BME280;2057;50.858;6.572;2022-11-04T12:28:20;99452.19;;;11.91;93.13
4085;BME280;2057;50.858;6.572;2022-11-04T12:30:57;99457.81;;;12.10;89.91
4085;BME280;2057;50.858;6.572;2022-11-04T12:33:36;99453.56;;;12.10;90.80
4085;BME280;2057;50.858;6.572;2022-11-04T12:36:24;99460.94;;;11.99;91.06
4085;BME280;2057;50.858;6.572;2022-11-04T12:39:17;99453.66;;;12.13;90.35
4085;BME280;2057;50.858;6.572;2022-11-04T12:45:15;99459.13;;;12.29;91.47
4085;BME280;2057;50.858;6.572;2022-11-04T12:47:32;99460.41;;;12.46;89.25
4085;BME280;2057;50.858;6.572;2022-11-04T12:55:45;99467.59;;;12.28;92.40
4085;BME280;2057;50.858;6.572;2022-11-04T13:04:03;99479.91;;;12.12;91.45
4085;BME280;2057;50.858;6.572;2022-11-04T13:06:33;99477.75;;;12.28;91.91
4085;BME280;2057;50.858;6.572;2022-11-04T13:09:07;99487.91;;;11.94;92.99
4085;BME280;2057;50.858;6.572;2022-11-04T13:11:35;99494.13;;;12.04;94.30
4085;BME280;2057;50.858;6.572;2022-11-04T13:14:22;99489.50;;;11.90;95.63
4085;BME280;2057;50.858;6.572;2022-11-04T13:16:55;99493.59;;;11.85;96.84
4085;BME280;2057;50.858;6.572;2022-11-04T13:21:55;99498.91;;;11.93;98.30
4085;BME280;2057;50.858;6.572;2022-11-04T13:24:29;99502.03;;;11.84;98.65
4085;BME280;2057;50.858;6.572;2022-11-04T13:27:14;99501.72;;;11.72;100.00
4085;BME280;2057;50.858;6.572;2022-11-04T13:29:42;99508.59;;;11.76;100.00
4085;BME280;2057;50.858;6.572;2022-11-04T13:32:13;99512.81;;;11.75;100.00
4085;BME280;2057;50.858;6.572;2022-11-04T13:34:52;99507.97;;;11.83;100.00
4085;BME280;2057;50.858;6.572;2022-11-04T13:39:55;99510.56;;;11.86;100.00
4085;BME280;2057;50.858;6.572;2022-11-04T13:44:52;99512.84;;;11.77;100.00
4085;BME280;2057;50.858;6.572;2022-11-04T13:47:30;99508.25;;;11.64;100.00
4085;BME280;2057;50.858;6.572;2022-11-04T13:49:57;99512.97;;;11.51;100.00
4085;BME280;2057;50.858;6.572;2022-11-04T13:52:31;99517.34;;;11.55;100.00
4085;BME280;2057;50.858;6.572;2022-11-04T13:55:04;99523.88;;;11.47;100.00
4085;BME280;2057;50.858;6.572;2022-11-04T13:57:50;99529.47;;;11.35;100.00
4085;BME280;2057;50.858;6.572;2022-11-04T14:00:22;99532.38;;;11.49;100.00
4085;BME280;2057;50.858;6.572;2022-11-04T14:02:54;99538.22;;;11.45;100.00
4085;BME280;2057;50.858;6.572;2022-11-04T14:16:11;99557.00;;;11.21;100.00
4085;BME280;2057;50.858;6.572;2022-11-04T14:18:44;99564.84;;;11.29;100.00
4085;BME280;2057;50.858;6.572;2022-11-04T14:23:48;99565.78;;;11.33;100.00
4085;BME280;2057;50.858;6.572;2022-11-04T14:26:19;99567.19;;;11.23;100.00
4085;BME280;2057;50.858;6.572;2022-11-04T14:28:49;99563.25;;;11.33;100.00
4085;BME280;2057;50.858;6.572;2022-11-04T14:31:35;99573.41;;;11.33;100.00
4085;BME280;2057;50.858;6.572;2022-11-04T14:34:02;99575.22;;;11.35;100.00
4085;BME280;2057;50.858;6.572;2022-11-04T14:36:33;99584.88;;;11.47;100.00
4085;BME280;2057;50.858;6.572;2022-11-04T14:39:00;99585.31;;;11.61;100.00
4085;BME280;2057;50.858;6.572;2022-11-04T14:44:28;99596.22;;;11.58;100.00
4085;BME280;2057;50.858;6.572;2022-11-04T14:46:57;99611.41;;;11.55;100.00
4085;BME280;2057;50.858;6.572;2022-11-04T14:49:35;99609.56;;;11.51;100.00
4085;BME280;2057;50.858;6.572;2022-11-04T14:52:03;99613.31;;;11.63;100.00
4085;BME280;2057;50.858;6.572;2022-11-04T14:54:31;99608.41;;;11.69;100.00
4085;BME280;2057;50.858;6.572;2022-11-04T14:57:19;99614.13;;;11.61;100.00
4085;BME280;2057;50.858;6.572;2022-11-04T14:59:45;99618.22;;;11.56;100.00
4085;BME280;2057;50.858;6.572;2022-11-04T15:02:22;99613.66;;;11.46;100.00
4085;BME280;2057;50.858;6.572;2022-11-04T15:04:51;99631.47;;;11.48;100.00
4085;BME280;2057;50.858;6.572;2022-11-04T15:07:39;99627.75;;;11.10;100.00
4085;BME280;2057;50.858;6.572;2022-11-04T15:10:24;99633.41;;;11.27;100.00
4085;BME280;2057;50.858;6.572;2022-11-04T15:12:51;99637.81;;;11.33;100.00
4085;BME280;2057;50.858;6.572;2022-11-04T15:15:38;99646.09;;;11.27;100.00
4085;BME280;2057;50.858;6.572;2022-11-04T15:18:07;99642.03;;;11.07;100.00
4085;BME280;2057;50.858;6.572;2022-11-04T15:20:37;99648.00;;;11.07;100.00
4085;BME280;2057;50.858;6.572;2022-11-04T15:23:08;99656.53;;;11.09;100.00
4085;BME280;2057;50.858;6.572;2022-11-04T15:25:43;99666.13;;;11.18;100.00
4085;BME280;2057;50.858;6.572;2022-11-04T15:28:20;99658.09;;;11.06;100.00
4085;BME280;2057;50.858;6.572;2022-11-04T15:31:14;99667.56;;;11.10;100.00
4085;BME280;2057;50.858;6.572;2022-11-04T15:33:45;99673.47;;;11.10;100.00
4085;BME280;2057;50.858;6.572;2022-11-04T15:36:17;99677.66;;;11.08;100.00
4085;BME280;2057;50.858;6.572;2022-11-04T15:38:49;99689.16;;;10.98;100.00
4085;BME280;2057;50.858;6.572;2022-11-04T15:41:18;99689.13;;;10.97;100.00